| time (UTC) | temp C | wind direction | speed KPH | gust KPH | rain 1hr cm | rain 24hr cm | rain mn cm | humidity % | barometer mb |
| 20260902140006 | 24 | 324 | 11.3 | 17.7 | 0.00 | 0.00 | 0.00 | 65 | 1018.5 |
| 20260902134502 | 23 | 360 | 9.7 | 14.5 | 0.00 | 0.00 | 0.00 | 67 | 1018.3 |
| 20260902133106 | 22 | 360 | 8.0 | 12.9 | 0.00 | 0.00 | 0.00 | 70 | 1018.2 |
| 20260902131554 | 22 | 343 | 6.4 | 12.9 | 0.00 | 0.00 | 0.00 | 72 | 1018.1 |
| 20260902130053 | 22 | 360 | 4.8 | 14.5 | 0.00 | 0.00 | 0.00 | 71 | 1017.9 |
| 20260902124549 | 22 | 335 | 9.7 | 17.7 | 0.00 | 0.00 | 0.00 | 71 | 1017.8 |
| 20260902123050 | 22 | 329 | 6.4 | 8.0 | 0.00 | 0.00 | 0.00 | 70 | 1017.7 |
| 20260902121545 | 22 | 360 | 6.4 | 14.5 | 0.00 | 0.00 | 0.00 | 70 | 1017.7 |
| 20260902120047 | 22 | 317 | 6.4 | 8.0 | 0.00 | 0.00 | 0.00 | 70 | 1017.7 |
| 20260902114552 | 22 | 341 | 6.4 | 16.1 | 0.00 | 0.00 | 0.00 | 70 | 1017.6 |
| 20260902113042 | 22 | 329 | 11.3 | 17.7 | 0.00 | 0.00 | 0.00 | 70 | 1017.5 |
| 20260902111546 | 22 | 313 | 8.0 | 14.5 | 0.00 | 0.00 | 0.00 | 71 | 1017.5 |
| 20260902110056 | 22 | 321 | 3.2 | 12.9 | 0.00 | 0.00 | 0.00 | 70 | 1017.5 |
| 20260902104539 | 22 | 339 | 4.8 | 12.9 | 0.00 | 0.00 | 0.00 | 69 | 1017.5 |
| 20260902103040 | 22 | 360 | 6.4 | 16.1 | 0.00 | 0.00 | 0.00 | 68 | 1017.3 |
| 20260902101540 | 22 | 315 | 4.8 | 12.9 | 0.00 | 0.00 | 0.00 | 68 | 1017.4 |
| 20260902100037 | 22 | 360 | 8.0 | 16.1 | 0.00 | 0.00 | 0.00 | 69 | 1017.4 |
| 20260902094542 | 22 | 360 | 9.7 | 16.1 | 0.00 | 0.00 | 0.00 | 69 | 1017.4 |
| 20260902093032 | 22 | 360 | 9.7 | 14.5 | 0.00 | 0.00 | 0.00 | 67 | 1017.3 |
| 20260902091530 | 23 | 360 | 8.0 | 14.5 | 0.00 | 0.00 | 0.00 | 66 | 1017.4 |
| 20260902090029 | 23 | 338 | 9.7 | 17.7 | 0.00 | 0.00 | 0.00 | 64 | 1017.3 |
| 20260902084538 | 23 | 360 | 12.9 | 19.3 | 0.00 | 0.00 | 0.00 | 66 | 1017.2 |
| 20260902083027 | 23 | 360 | 17.7 | 22.5 | 0.00 | 0.00 | 0.00 | 66 | 1017.3 |
| 20260902081526 | 23 | 360 | 14.5 | 24.1 | 0.00 | 0.00 | 0.00 | 65 | 1017.3 |
| 20260902080024 | 23 | 360 | 12.9 | 17.7 | 0.00 | 0.00 | 0.00 | 65 | 1017.2 |
| 20260902074522 | 23 | 360 | 8.0 | 16.1 | 0.00 | 0.00 | 0.00 | 63 | 1017.3 |
| 20260902073021 | 23 | 360 | 12.9 | 20.9 | 0.00 | 0.00 | 0.00 | 63 | 1017.3 |
| 20260902071529 | 23 | 360 | 9.7 | 19.3 | 0.00 | 0.00 | 0.00 | 64 | 1017.4 |
| 20260902070015 | 24 | 360 | 11.3 | 20.9 | 0.00 | 0.00 | 0.00 | 60 | 1017.4 |
| 20260902064514 | 25 | 360 | 12.9 | 19.3 | 0.00 | 0.00 | 0.00 | 57 | 1017.4 |
| 20260902063023 | 25 | 360 | 11.3 | 16.1 | 0.00 | 0.00 | 0.00 | 57 | 1017.4 |
| 20260902061510 | 25 | 360 | 3.2 | 14.5 | 0.00 | 0.00 | 0.00 | 55 | 1017.4 |
| 20260902060006 | 25 | 360 | 9.7 | 17.7 | 0.00 | 0.00 | 0.00 | 54 | 1017.6 |
| 20260902054510 | 25 | 360 | 6.4 | 12.9 | 0.00 | 0.00 | 0.00 | 53 | 1017.5 |
| 20260902053009 | 25 | 360 | 4.8 | 9.7 | 0.00 | 0.00 | 0.00 | 54 | 1017.4 |
| 20260902051501 | 25 | 360 | 9.7 | 14.5 | 0.00 | 0.00 | 0.00 | 53 | 1017.3 |
| 20260902050101 | 25 | 360 | 9.7 | 16.1 | 0.00 | 0.00 | 0.00 | 52 | 1017.4 |
| 20260902044558 | 26 | 360 | 8.0 | 16.1 | 0.00 | 0.00 | 0.00 | 52 | 1017.4 |
| 20260902043103 | 26 | 348 | 6.4 | 14.5 | 0.00 | 0.00 | 0.00 | 51 | 1017.2 |
| 20260902041555 | 26 | 360 | 1.6 | 8.0 | 0.00 | 0.00 | 0.00 | 50 | 1017.3 |
| 20260902040055 | 26 | 360 | 9.7 | 19.3 | 0.00 | 0.00 | 0.00 | 49 | 1017.1 |
| 20260902034554 | 27 | 360 | 6.4 | 20.9 | 0.00 | 0.00 | 0.00 | 47 | 1017.1 |
| 20260902033154 | 27 | 360 | 9.7 | 16.1 | 0.00 | 0.00 | 0.00 | 45 | 1016.8 |
| 20260902031553 | 27 | 360 | 17.7 | 29.0 | 0.00 | 0.00 | 0.00 | 44 | 1016.4 |
| 20260902030053 | 27 | 360 | 17.7 | 35.4 | 0.00 | 0.00 | 0.00 | 45 | 1016.1 |
| 20260902024552 | 27 | 360 | 19.3 | 33.8 | 0.00 | 0.00 | 0.00 | 44 | 1015.8 |
| 20260902023054 | 27 | 360 | 14.5 | 25.7 | 0.00 | 0.00 | 0.00 | 41 | 1015.6 |
| 20260902021557 | 27 | 360 | 17.7 | 25.7 | 0.00 | 0.00 | 0.00 | 49 | 1015.2 |
| 20260902020051 | 27 | 360 | 20.9 | 30.6 | 0.00 | 0.00 | 0.00 | 45 | 1015.0 |
| 20260902014550 | 26 | 360 | 17.7 | 30.6 | 0.00 | 0.00 | 0.00 | 47 | 1014.9 |
| 20260902013050 | 27 | 338 | 24.1 | 29.0 | 0.00 | 0.00 | 0.00 | 50 | 1014.7 |
| 20260902011548 | 27 | 360 | 17.7 | 30.6 | 0.00 | 0.00 | 0.00 | 47 | 1014.6 |
| 20260902010050 | 27 | 351 | 25.7 | 32.2 | 0.00 | 0.00 | 0.00 | 48 | 1014.5 |
| 20260902004548 | 27 | 342 | 24.1 | 32.2 | 0.00 | 0.00 | 0.00 | 49 | 1014.5 |
| 20260902003047 | 27 | 175 | 30.6 | 40.2 | 0.00 | 0.00 | 0.00 | 47 | 1014.3 |
| 20260902001547 | 28 | 349 | 25.7 | 35.4 | 0.00 | 0.00 | 0.00 | 46 | 1014.2 |
| 20260902000051 | 27 | 360 | 25.7 | 37.0 | 0.00 | 0.00 | 0.00 | 46 | 1014.3 |
| 20260901234556 | 28 | 156 | 27.4 | 37.0 | 0.00 | 0.00 | 0.00 | 48 | 1014.1 |
| 20260901233045 | 28 | 360 | 27.4 | 35.4 | 0.00 | 0.00 | 0.00 | 47 | 1013.9 |
| 20260901231544 | 30 | 344 | 29.0 | 37.0 | 0.00 | 0.00 | 0.00 | 39 | 1013.7 |
| 20260901230047 | 30 | 338 | 32.2 | 45.1 | 0.00 | 0.00 | 0.00 | 41 | 1013.4 |
| 20260901224543 | 31 | 360 | 24.1 | 37.0 | 0.00 | 0.00 | 0.00 | 37 | 1013.3 |
| 20260901223041 | 33 | 180 | 11.3 | 27.4 | 0.00 | 0.00 | 0.00 | 30 | 1013.5 |
| 20260901221606 | 33 | 100 | 9.7 | 22.5 | 0.00 | 0.00 | 0.00 | 31 | 1013.4 |
| 20260901220040 | 33 | 168 | 22.5 | 32.2 | 0.00 | 0.00 | 0.00 | 31 | 1013.2 |
| 20260901214540 | 36 | 270 | 11.3 | 25.7 | 0.00 | 0.00 | 0.00 | 23 | 1013.2 |
| 20260901213059 | 37 | 219 | 22.5 | 30.6 | 0.00 | 0.00 | 0.00 | 22 | 1013.1 |
| 20260901211543 | 38 | 234 | 4.8 | 22.5 | 0.00 | 0.00 | 0.00 | 23 | 1013.3 |
| 20260901210038 | 36 | 247 | 3.2 | 16.1 | 0.00 | 0.00 | 0.00 | 24 | 1013.5 |
| 20260901204533 | 36 | 247 | 0.0 | 24.1 | 0.00 | 0.00 | 0.00 | 26 | 1013.8 |
| 20260901203041 | 36 | 360 | 12.9 | 25.7 | 0.00 | 0.00 | 0.00 | 23 | 1014.2 |
| 20260901201527 | 35 | 285 | 4.8 | 19.3 | 0.00 | 0.00 | 0.00 | 25 | 1014.4 |
| 20260901200038 | 35 | 227 | 0.0 | 9.7 | 0.00 | 0.00 | 0.00 | 27 | 1014.6 |
| 20260901194524 | 33 | 360 | 9.7 | 16.1 | 0.00 | 0.00 | 0.00 | 28 | 1014.8 |
| 20260901193025 | 36 | 360 | 16.1 | 20.9 | 0.00 | 0.00 | 0.00 | 25 | 1015.0 |
| 20260901191523 | 35 | 281 | 6.4 | 16.1 | 0.00 | 0.00 | 0.00 | 26 | 1015.4 |
| 20260901190021 | 35 | 294 | 6.4 | 24.1 | 0.00 | 0.00 | 0.00 | 28 | 1015.5 |
| 20260901184517 | 35 | 360 | 6.4 | 12.9 | 0.00 | 0.00 | 0.00 | 27 | 1015.9 |
| 20260901183012 | 33 | 220 | 3.2 | 19.3 | 0.00 | 0.00 | 0.00 | 30 | 1016.2 |
| 20260901181512 | 33 | 360 | 9.7 | 16.1 | 0.00 | 0.00 | 0.00 | 30 | 1016.5 |
| 20260901180005 | 33 | 360 | 9.7 | 16.1 | 0.00 | 0.00 | 0.00 | 31 | 1016.7 |
| 20260901174502 | 32 | 306 | 1.6 | 19.3 | 0.00 | 0.00 | 0.00 | 32 | 1016.7 |
| 20260901173058 | 33 | 360 | 4.8 | 17.7 | 0.00 | 0.00 | 0.00 | 32 | 1016.9 |
| 20260901171605 | 33 | 264 | 6.4 | 17.7 | 0.00 | 0.00 | 0.00 | 32 | 1016.9 |
| 20260901170052 | 32 | 193 | 4.8 | 14.5 | 0.00 | 0.00 | 0.00 | 37 | 1017.0 |
| 20260901164549 | 31 | 283 | 1.6 | 8.0 | 0.00 | 0.00 | 0.00 | 35 | 1017.0 |
| 20260901163046 | 31 | 262 | 1.6 | 6.4 | 0.00 | 0.00 | 0.00 | 35 | 1017.1 |
| 20260901161542 | 31 | 170 | 6.4 | 12.9 | 0.00 | 0.00 | 0.00 | 38 | 1017.1 |
| 20260901160038 | 30 | 211 | 1.6 | 9.7 | 0.00 | 0.00 | 0.00 | 38 | 1017.0 |
| 20260901154534 | 30 | 215 | 3.2 | 11.3 | 0.00 | 0.00 | 0.00 | 39 | 1017.0 |
| 20260901153030 | 30 | 209 | 4.8 | 14.5 | 0.00 | 0.00 | 0.00 | 41 | 1017.0 |
| 20260901151525 | 29 | 349 | 4.8 | 14.5 | 0.00 | 0.00 | 0.00 | 43 | 1017.1 |
| 20260901150021 | 28 | 360 | 9.7 | 16.1 | 0.00 | 0.00 | 0.00 | 44 | 1017.2 |
| 20260901144518 | 27 | 332 | 9.7 | 17.7 | 0.00 | 0.00 | 0.00 | 47 | 1017.2 |
| 20260901143012 | 26 | 346 | 12.9 | 19.3 | 0.00 | 0.00 | 0.00 | 49 | 1017.2 |
| 20260901141508 | 25 | 360 | 11.3 | 16.1 | 0.00 | 0.00 | 0.00 | 52 | 1017.3 |